Accueil
METAR-TAF:

METAR-TAF

Aéroports :

Saint-Gall, Suisse

Aéroport international Saint-Gall-Altenrhein

latitude: 47-29-06N, longitude: 009-33-43E, altitude: 398 m

Observation

Le bulletin a été fait il y a 38 minutes, à 08:20 UTC
Vent 4 kt de ouest/nord-ouest
Température 4°C
Humidité 87%
Pression 1014 hPa
Visibilité 10 km ou plus
Nuages fragmentés à une hauteur de 1000 ft
pluie faible

METAR: LSZR 270820Z 29004KT 9999 -RA BKN010 04/02 Q1014 NOSIG RMK E

Heure: 10:58 (08:58 UTC)

Prévision

Le bulletin a été fait il y a 33 minutes, à 08:25 UTC
Prévision valable du 27 à 09 UTC au 27 à 18 UTC
Vent 4 kt de ouest/nord-ouest
Visibilité 10 km ou plus
Nuages fragmentés à une hauteur de 1000 ft
Temporairement
du 27 à 09 UTC au 27 à 18 UTC
Visibilité: 4000 m
Nuages fragmentés à une hauteur de 800 ft
pluie

TAF: LSZR 270825Z 2709/2718 30004KT 9999 BKN010 TEMPO 2709/2718 4000 RA BKN008

Observations et prévisions météorologiques de plus de 4000 aéroports (messages METAR et TAF).

Les stations disponibles sont représentées par des disques jaunes et rouges sur la carte.

Passer la souris dessus pour voir le nom de la station.

Cliquer dessus pour voir les observations et prévisions météorologiques.

Pour changer de carte: cliquez sur les boutons verts avec une croix noire pour zoomer, sur le bouton vert avec un tiret pour effectuer un zoom arrière, ou sur les flèches vertes pour les cartes adjacentes.


METAR-TAF: